Time;durP1;ratioP1;P1;durP2;ratioP2;P2;SDS_P1;SDS_P2;PMS_P1;PMS_P2;Temp;Humidity;BMP_temperature;BMP_pressure;BME280_temperature;BME280_humidity;BME280_pressure;Samples;Min_cycle;Max_cycle;Signal;HPM_P1;HPM_P2
2022/01/31 00:02:19;;;;;;;23.40;6.78;;;9.20;96.60;;;;;;5087116;28;20546;-65
2022/01/31 00:04:45;;;;;;;26.73;7.63;;;9.10;96.50;;;;;;5088908;28;20055;-65
2022/01/31 00:07:11;;;;;;;28.42;6.72;;;9.00;96.70;;;;;;5087687;28;20039;-65
2022/01/31 00:09:40;;;;;;;30.00;6.60;;;8.90;97.00;;;;;;5079246;28;20016;-65
2022/01/31 00:12:09;;;;;;;24.88;6.80;;;8.80;97.40;;;;;;5086638;28;20684;-65
2022/01/31 00:14:43;;;;;;;26.40;7.28;;;8.70;98.00;;;;;;5101650;28;20032;-65
2022/01/31 00:17:11;;;;;;;23.25;6.60;;;8.60;98.90;;;;;;5087882;28;20502;-65
2022/01/31 00:19:38;;;;;;;28.17;7.45;;;8.60;99.60;;;;;;5086634;28;20020;-65
2022/01/31 00:22:06;;;;;;;26.58;6.88;;;8.40;99.70;;;;;;5090214;28;20028;-65
2022/01/31 00:24:33;;;;;;;23.90;6.88;;;8.40;99.90;;;;;;5086361;28;20028;-65
2022/01/31 00:26:59;;;;;;;22.17;6.93;;;8.40;99.90;;;;;;5100232;28;20012;-65
2022/01/31 00:29:25;;;;;;;24.88;7.20;;;8.30;99.90;;;;;;5092040;28;20112;-65
2022/01/31 00:31:51;;;;;;;25.50;7.30;;;8.30;99.90;;;;;;5089020;28;20051;-65
2022/01/31 00:34:17;;;;;;;24.58;7.18;;;8.30;99.90;;;;;;5095692;28;20376;-65
2022/01/31 00:36:43;;;;;;;31.25;7.93;;;8.20;99.90;;;;;;5089804;28;20092;-65
2022/01/31 00:39:09;;;;;;;20.15;6.50;;;8.30;99.90;;;;;;5087579;28;20052;-65
2022/01/31 00:41:35;;;;;;;19.63;6.40;;;8.40;99.90;;;;;;5096063;28;20028;-65
2022/01/31 00:44:51;;;;;;;22.48;6.90;;;8.40;99.90;;;;;;5090010;28;20067;-65
2022/01/31 00:46:58;;;;;;;20.52;6.53;;;8.50;99.90;;;;;;5086441;28;20051;-65
2022/01/31 00:49:35;;;;;;;20.25;6.25;;;8.50;99.90;;;;;;5090649;28;20048;-65
2022/01/31 00:52:03;;;;;;;22.42;7.05;;;8.50;99.90;;;;;;5091853;28;20107;-65
2022/01/31 00:54:29;;;;;;;24.60;6.38;;;8.40;99.90;;;;;;5087608;28;20024;-65
2022/01/31 00:56:55;;;;;;;22.00;6.13;;;8.40;99.90;;;;;;5093502;28;20066;-64
2022/01/31 00:59:21;;;;;;;21.02;7.53;;;8.30;99.90;;;;;;5094311;28;20055;-64
2022/01/31 01:01:48;;;;;;;20.92;6.53;;;8.20;99.90;;;;;;5086891;28;20108;-65
2022/01/31 01:04:14;;;;;;;21.90;6.15;;;8.10;99.90;;;;;;5092003;28;20032;-65
2022/01/31 01:06:41;;;;;;;18.48;6.20;;;8.00;99.90;;;;;;5088965;28;20024;-65
2022/01/31 01:09:07;;;;;;;26.48;6.30;;;8.00;99.90;;;;;;5094462;28;20189;-65
2022/01/31 01:11:33;;;;;;;17.75;6.38;;;7.90;99.90;;;;;;5093060;28;20026;-65
2022/01/31 01:13:59;;;;;;;21.83;5.85;;;7.90;99.90;;;;;;5089060;28;20024;-64
2022/01/31 01:16:25;;;;;;;18.48;5.60;;;7.80;99.90;;;;;;5090662;28;20039;-68
2022/01/31 01:18:51;;;;;;;21.13;5.50;;;7.80;99.90;;;;;;5080110;28;20119;-69
2022/01/31 01:21:16;;;;;;;19.38;5.43;;;7.90;99.90;;;;;;5087489;28;20387;-69
2022/01/31 01:23:42;;;;;;;18.42;5.28;;;7.90;99.90;;;;;;5085082;28;20475;-69
2022/01/31 01:26:08;;;;;;;21.65;5.65;;;8.00;99.90;;;;;;5090305;28;20020;-69
2022/01/31 01:28:34;;;;;;;26.48;5.10;;;8.10;99.90;;;;;;5088214;28;20085;-68
2022/01/31 01:31:00;;;;;;;20.92;5.13;;;8.10;99.90;;;;;;5085778;28;20016;-69
2022/01/31 01:33:26;;;;;;;15.40;4.97;;;8.20;99.90;;;;;;5083136;28;20363;-68
2022/01/31 01:35:54;;;;;;;20.92;5.03;;;8.30;99.90;;;;;;5095274;28;20036;-68
2022/01/31 01:38:23;;;;;;;15.73;5.25;;;8.40;99.90;;;;;;5094370;28;20024;-69
2022/01/31 01:40:49;;;;;;;16.60;4.88;;;8.50;99.90;;;;;;5085618;28;20061;-69
2022/01/31 01:43:15;;;;;;;15.45;5.13;;;8.50;99.90;;;;;;5086407;28;20372;-69
2022/01/31 01:45:43;;;;;;;15.90;5.10;;;8.60;99.90;;;;;;5090161;28;20028;-69
2022/01/31 01:48:10;;;;;;;19.60;4.68;;;8.70;99.90;;;;;;5090107;28;25473;-69
2022/01/31 01:50:40;;;;;;;15.70;4.68;;;8.70;99.90;;;;;;5075614;28;20036;-69
2022/01/31 01:53:07;;;;;;;19.30;5.43;;;8.80;99.90;;;;;;5087646;28;20064;-69
2022/01/31 01:55:33;;;;;;;15.50;5.35;;;8.90;99.90;;;;;;5091487;28;20042;-69
2022/01/31 01:57:59;;;;;;;18.58;5.50;;;8.90;99.90;;;;;;5094906;28;20017;-69
2022/01/31 02:00:27;;;;;;;15.13;5.15;;;9.00;99.90;;;;;;5087011;28;20093;-69
2022/01/31 02:02:55;;;;;;;15.52;4.45;;;9.00;99.90;;;;;;5091325;28;20429;-69
2022/01/31 02:05:21;;;;;;;14.95;4.63;;;9.00;99.90;;;;;;5094212;28;20059;-69
2022/01/31 02:07:48;;;;;;;17.42;5.20;;;9.10;99.90;;;;;;5089211;28;20073;-69
2022/01/31 02:10:15;;;;;;;19.50;5.47;;;9.10;99.90;;;;;;5081799;28;20033;-69
2022/01/31 02:12:50;;;;;;;16.10;5.05;;;9.10;99.90;;;;;;5077652;28;20028;-69
2022/01/31 02:15:17;;;;;;;17.40;4.80;;;9.20;99.90;;;;;;5089945;28;20156;-69
2022/01/31 02:17:42;;;;;;;16.45;4.38;;;9.20;99.90;;;;;;5083349;28;20106;-69
2022/01/31 02:20:10;;;;;;;14.30;5.30;;;9.30;99.90;;;;;;5088855;28;20039;-69
2022/01/31 02:22:36;;;;;;;16.08;4.40;;;9.30;99.90;;;;;;5085770;28;20028;-69
2022/01/31 02:25:04;;;;;;;14.32;4.28;;;9.30;99.90;;;;;;5087361;28;20115;-69
2022/01/31 02:27:35;;;;;;;15.93;4.50;;;9.30;99.90;;;;;;5090670;28;20128;-69
2022/01/31 02:30:03;;;;;;;11.65;4.07;;;9.40;99.90;;;;;;5084592;28;20028;-69
2022/01/31 02:32:28;;;;;;;14.82;4.60;;;9.40;99.90;;;;;;5089212;28;20574;-69
2022/01/31 02:34:54;;;;;;;17.58;4.78;;;9.40;99.90;;;;;;5084512;28;20130;-69
2022/01/31 02:37:20;;;;;;;14.80;4.80;;;9.40;99.90;;;;;;5086804;28;20034;-69
2022/01/31 02:39:46;;;;;;;13.68;4.13;;;9.40;99.90;;;;;;5086791;28;20052;-69
2022/01/31 02:42:13;;;;;;;13.98;4.88;;;9.50;99.90;;;;;;5075721;28;20032;-69
2022/01/31 02:44:41;;;;;;;12.20;4.43;;;9.50;99.90;;;;;;5089851;28;20562;-69
2022/01/31 02:47:13;;;;;;;11.05;4.15;;;9.50;99.90;;;;;;5080073;28;20064;-69
2022/01/31 02:49:52;;;;;;;10.88;4.10;;;9.50;99.90;;;;;;5083144;28;20020;-69
2022/01/31 02:52:18;;;;;;;10.82;3.90;;;9.50;99.90;;;;;;5088508;28;20032;-69
2022/01/31 02:54:45;;;;;;;10.45;4.03;;;9.50;99.90;;;;;;5094902;28;20103;-69
2022/01/31 02:57:11;;;;;;;11.60;3.60;;;9.50;99.90;;;;;;5098785;28;20489;-69
2022/01/31 02:59:37;;;;;;;11.15;3.92;;;9.50;99.90;;;;;;5082230;28;20028;-69
2022/01/31 03:02:04;;;;;;;11.05;3.55;;;9.50;99.90;;;;;;5076085;28;20031;-69
2022/01/31 03:04:30;;;;;;;12.50;3.72;;;9.60;99.90;;;;;;5097186;28;20532;-68
2022/01/31 03:06:56;;;;;;;8.45;3.47;;;9.60;99.90;;;;;;5088065;28;20032;-69
2022/01/31 03:09:22;;;;;;;8.90;3.55;;;9.60;99.90;;;;;;5085541;28;20014;-69
2022/01/31 03:11:48;;;;;;;10.70;3.33;;;9.70;99.90;;;;;;5084594;28;20028;-69
2022/01/31 03:14:19;;;;;;;9.93;3.50;;;9.70;99.90;;;;;;5078059;28;20587;-69
2022/01/31 03:16:46;;;;;;;;;;;9.70;99.90;;;;;;5091121;28;20048;-69
2022/01/31 03:19:13;;;;;;;9.15;3.58;;;9.70;99.90;;;;;;5085608;28;19969;-69
2022/01/31 03:21:39;;;;;;;11.27;4.20;;;9.70;99.90;;;;;;5085046;28;20031;-70
2022/01/31 03:24:06;;;;;;;8.45;3.80;;;9.70;99.90;;;;;;5085304;28;20458;-68
2022/01/31 03:26:31;;;;;;;9.68;3.47;;;9.70;99.90;;;;;;5085403;28;20108;-69
2022/01/31 03:28:57;;;;;;;13.70;4.00;;;9.70;99.90;;;;;;5092979;28;20111;-69
2022/01/31 03:31:24;;;;;;;8.85;3.22;;;9.70;99.90;;;;;;5079524;28;20020;-70
2022/01/31 03:33:51;;;;;;;7.82;3.17;;;9.70;99.90;;;;;;5085824;28;20490;-68
2022/01/31 03:36:17;;;;;;;9.90;3.60;;;9.70;99.90;;;;;;5088528;28;20033;-69
2022/01/31 03:38:44;;;;;;;12.82;3.67;;;9.70;99.90;;;;;;5093889;28;20024;-69
2022/01/31 03:41:12;;;;;;;9.77;3.15;;;9.70;99.90;;;;;;5090851;28;20024;-70
2022/01/31 03:43:38;;;;;;;8.82;3.70;;;9.70;99.90;;;;;;5086248;28;20055;-69
2022/01/31 03:46:04;;;;;;;7.25;3.28;;;9.70;99.90;;;;;;5087362;28;20024;-70
2022/01/31 03:48:30;;;;;;;9.57;3.15;;;9.70;99.90;;;;;;5085358;28;20024;-69
2022/01/31 03:50:57;;;;;;;6.07;2.95;;;9.80;99.90;;;;;;5079067;28;20029;-69
2022/01/31 03:53:23;;;;;;;7.63;3.28;;;9.80;99.90;;;;;;5088552;28;20070;-69
2022/01/31 03:55:49;;;;;;;7.00;3.45;;;9.80;99.90;;;;;;5085585;28;20031;-69
2022/01/31 03:58:15;;;;;;;10.20;3.35;;;9.90;99.90;;;;;;5083796;28;20023;-69
2022/01/31 04:00:41;;;;;;;7.72;3.63;;;9.90;99.90;;;;;;5096500;28;20059;-69
2022/01/31 04:03:07;;;;;;;9.80;3.40;;;9.90;99.90;;;;;;5075572;28;20023;-70
2022/01/31 04:05:33;;;;;;;9.50;3.38;;;10.00;99.90;;;;;;5091590;28;20048;-69
2022/01/31 04:07:59;;;;;;;11.35;3.78;;;10.00;99.90;;;;;;5085119;28;20055;-69
2022/01/31 04:10:26;;;;;;;10.43;3.60;;;10.00;99.90;;;;;;5085391;28;20056;-70
2022/01/31 04:12:52;;;;;;;10.25;3.90;;;10.00;99.90;;;;;;5091800;28;20032;-70
2022/01/31 04:15:18;;;;;;;8.63;3.55;;;10.00;99.90;;;;;;5077006;28;20143;-70
2022/01/31 04:17:44;;;;;;;9.77;3.42;;;10.00;99.90;;;;;;5088223;28;20105;-70
2022/01/31 04:20:11;;;;;;;9.23;3.67;;;10.00;99.90;;;;;;5073864;28;20028;-69
2022/01/31 04:22:44;;;;;;;9.60;3.63;;;10.00;99.90;;;;;;5080669;28;20043;-69
2022/01/31 04:25:27;;;;;;;8.60;3.55;;;10.00;99.90;;;;;;5090778;28;20148;-69
2022/01/31 04:28:01;;;;;;;11.85;3.85;;;10.00;99.90;;;;;;5077370;28;20036;-69
2022/01/31 04:30:28;;;;;;;11.77;4.47;;;10.10;99.90;;;;;;5088044;28;20043;-70
2022/01/31 04:32:54;;;;;;;13.82;3.65;;;10.00;99.90;;;;;;5099654;28;20020;-69
2022/01/31 04:35:20;;;;;;;12.25;3.78;;;10.00;99.90;;;;;;5073448;28;20028;-69
2022/01/31 04:37:45;;;;;;;11.43;3.83;;;10.00;99.90;;;;;;5078236;28;20032;-69
2022/01/31 04:40:14;;;;;;;13.43;4.15;;;10.00;99.90;;;;;;5087673;28;20395;-70
2022/01/31 04:42:43;;;;;;;10.68;3.90;;;10.00;99.90;;;;;;5085016;28;20024;-69
2022/01/31 04:45:10;;;;;;;10.60;3.53;;;10.00;99.90;;;;;;5083640;28;20040;-70
2022/01/31 04:47:36;;;;;;;13.77;3.15;;;10.00;99.90;;;;;;5089725;28;20506;-70
2022/01/31 04:50:04;;;;;;;10.27;2.70;;;9.90;99.90;;;;;;5085315;28;20028;-70
2022/01/31 04:52:30;;;;;;;14.65;2.67;;;9.90;99.90;;;;;;5085182;28;20028;-69
2022/01/31 04:54:55;;;;;;;15.20;2.28;;;9.80;99.90;;;;;;5091323;28;20071;-69
2022/01/31 04:57:21;;;;;;;11.10;2.03;;;9.80;99.90;;;;;;5084133;28;20056;-69
2022/01/31 04:59:48;;;;;;;9.30;1.58;;;9.80;99.90;;;;;;5087128;28;20035;-70
2022/01/31 05:02:14;;;;;;;11.93;1.60;;;9.80;99.90;;;;;;5098625;28;20608;-70
2022/01/31 05:04:40;;;;;;;14.23;1.70;;;9.70;99.90;;;;;;5086751;28;20127;-69
2022/01/31 05:07:07;;;;;;;19.40;2.10;;;9.70;99.90;;;;;;5083176;28;20047;-69
2022/01/31 05:09:32;;;;;;;20.90;2.20;;;9.70;99.90;;;;;;5087870;28;20399;-70
2022/01/31 05:11:59;;;;;;;16.98;2.10;;;9.70;99.90;;;;;;5089411;28;20040;-69
2022/01/31 05:14:24;;;;;;;19.65;2.22;;;9.80;99.90;;;;;;5091691;28;20371;-70
2022/01/31 05:16:50;;;;;;;16.13;2.00;;;9.80;99.90;;;;;;5085851;28;20085;-70
2022/01/31 05:19:16;;;;;;;21.55;2.78;;;9.80;99.90;;;;;;5095926;28;20225;-70
2022/01/31 05:21:42;;;;;;;12.25;1.85;;;9.90;99.90;;;;;;5096296;28;20132;-68
2022/01/31 05:24:07;;;;;;;19.45;1.90;;;9.90;99.90;;;;;;5093538;28;20029;-69
2022/01/31 05:26:34;;;;;;;20.52;2.13;;;9.90;99.90;;;;;;5091314;28;20146;-69
2022/01/31 05:29:00;;;;;;;17.75;2.30;;;9.90;99.90;;;;;;5085122;28;20016;-70
2022/01/31 05:31:26;;;;;;;17.42;2.17;;;9.80;99.90;;;;;;5084853;28;20042;-70
2022/01/31 05:33:51;;;;;;;21.85;2.00;;;9.70;99.90;;;;;;5086555;28;20153;-69
2022/01/31 05:36:17;;;;;;;12.57;2.53;;;9.60;99.90;;;;;;5092676;28;20032;-70
2022/01/31 05:38:45;;;;;;;16.42;1.92;;;9.50;99.90;;;;;;5114775;27;20027;-69
2022/01/31 05:41:18;;;;;;;15.48;2.05;;;9.50;99.90;;;;;;5089575;28;20036;-67
2022/01/31 05:43:43;;;;;;;20.90;2.17;;;9.40;99.90;;;;;;5084796;28;20464;-68
2022/01/31 05:46:09;;;;;;;15.65;2.10;;;9.40;99.90;;;;;;5088589;28;20032;-68
2022/01/31 05:48:35;;;;;;;16.75;1.88;;;9.30;99.90;;;;;;5088140;28;20035;-67
2022/01/31 05:51:02;;;;;;;20.00;2.53;;;9.30;99.90;;;;;;5089589;28;20024;-69
2022/01/31 05:53:32;;;;;;;18.35;1.95;;;9.20;99.90;;;;;;5102550;28;20027;-68
2022/01/31 05:55:58;;;;;;;15.32;1.85;;;9.10;99.90;;;;;;5094443;28;20147;-67
2022/01/31 05:58:24;;;;;;;13.40;1.60;;;9.10;99.90;;;;;;5084520;28;20095;-68
2022/01/31 06:00:50;;;;;;;18.65;1.80;;;9.10;99.90;;;;;;5084845;28;20111;-67
2022/01/31 06:03:16;;;;;;;15.93;1.80;;;9.00;99.90;;;;;;5089377;28;20032;-68
2022/01/31 06:05:42;;;;;;;13.57;1.77;;;9.00;99.90;;;;;;5097233;28;20031;-69
2022/01/31 06:08:08;;;;;;;19.17;2.00;;;9.00;99.90;;;;;;5092480;28;20110;-68
2022/01/31 06:10:40;;;;;;;20.40;2.33;;;8.90;99.90;;;;;;5089480;28;20031;-68
2022/01/31 06:13:06;;;;;;;18.92;2.17;;;9.00;99.90;;;;;;5088272;28;20491;-68
2022/01/31 06:15:32;;;;;;;16.67;1.85;;;9.00;99.90;;;;;;5091680;28;20043;-69
2022/01/31 06:17:58;;;;;;;13.25;1.83;;;9.00;99.90;;;;;;5101492;28;20031;-68
2022/01/31 06:20:23;;;;;;;15.00;1.80;;;9.00;99.90;;;;;;5089522;28;20028;-68
2022/01/31 06:22:50;;;;;;;15.18;2.13;;;9.00;99.90;;;;;;5086918;28;20023;-69
2022/01/31 06:25:18;;;;;;;14.10;2.00;;;8.90;99.90;;;;;;5093160;28;20085;-69
2022/01/31 06:27:44;;;;;;;14.55;1.65;;;8.90;99.90;;;;;;5087314;28;20036;-68
2022/01/31 06:30:10;;;;;;;19.48;2.03;;;8.80;99.90;;;;;;5087412;28;20028;-67
2022/01/31 06:32:37;;;;;;;19.48;2.17;;;8.80;99.90;;;;;;5085902;28;20572;-68
2022/01/31 06:35:03;;;;;;;17.13;2.00;;;8.70;99.90;;;;;;5087112;28;20065;-68
2022/01/31 06:37:29;;;;;;;20.25;3.10;;;8.70;99.90;;;;;;5083140;28;20117;-68
2022/01/31 06:39:55;;;;;;;13.63;1.80;;;8.70;99.90;;;;;;5083539;28;20098;-68
2022/01/31 06:42:21;;;;;;;14.98;1.80;;;8.70;99.90;;;;;;5086136;28;20033;-68
2022/01/31 06:44:46;;;;;;;16.02;1.92;;;8.70;99.90;;;;;;5072191;28;20032;-68
2022/01/31 06:47:12;;;;;;;28.25;6.18;;;8.70;99.90;;;;;;5083503;28;20044;-68
2022/01/31 06:49:38;;;;;;;19.45;2.15;;;8.70;99.90;;;;;;5084658;28;20061;-70
2022/01/31 06:52:05;;;;;;;18.08;1.92;;;8.70;99.90;;;;;;5087765;28;21244;-69
2022/01/31 06:54:30;;;;;;;18.35;2.17;;;8.70;99.90;;;;;;5089647;28;20028;-69
2022/01/31 06:56:57;;;;;;;13.93;1.90;;;8.70;99.90;;;;;;5085021;28;20036;-70
2022/01/31 06:59:23;;;;;;;16.80;2.15;;;8.70;99.90;;;;;;5074335;28;20074;-69
2022/01/31 07:01:49;;;;;;;20.83;2.40;;;8.70;99.90;;;;;;5074333;28;20032;-70
2022/01/31 07:04:15;;;;;;;12.77;2.83;;;8.60;99.90;;;;;;5074376;28;20554;-69
2022/01/31 07:06:41;;;;;;;21.73;2.15;;;8.60;99.90;;;;;;5079711;28;20057;-69
2022/01/31 07:09:07;;;;;;;15.80;2.15;;;8.50;99.90;;;;;;5079983;28;20032;-69
2022/01/31 07:11:38;;;;;;;13.93;1.80;;;8.40;99.90;;;;;;5088381;28;20035;-69
2022/01/31 07:16:48;;;;;;;16.33;1.80;;;8.30;99.90;;;;;;5082201;28;20042;-69
2022/01/31 07:19:13;;;;;;;16.02;2.20;;;8.20;99.90;;;;;;5080632;28;20024;-69
2022/01/31 07:21:47;;;;;;;15.18;2.33;;;8.20;99.90;;;;;;5073691;28;20059;-69
2022/01/31 07:24:26;;;;;;;16.33;2.22;;;8.10;99.90;;;;;;5070746;28;20047;-69
2022/01/31 07:26:52;;;;;;;21.33;2.50;;;8.10;99.90;;;;;;5087161;28;20048;-68
2022/01/31 07:29:20;;;;;;;20.98;2.10;;;8.00;99.90;;;;;;5076654;28;20866;-68
2022/01/31 07:31:46;;;;;;;15.63;1.95;;;8.00;99.90;;;;;;5090377;28;20024;-69
2022/01/31 07:34:14;;;;;;;17.02;2.50;;;8.00;99.90;;;;;;5085338;28;20063;-69
2022/01/31 07:36:40;;;;;;;21.70;3.00;;;7.90;99.90;;;;;;5084341;28;20498;-69
2022/01/31 07:39:06;;;;;;;19.80;1.98;;;7.80;99.90;;;;;;5092717;28;20078;-68
2022/01/31 07:41:32;;;;;;;16.60;1.98;;;7.80;99.90;;;;;;5083540;28;20063;-68
2022/01/31 07:43:59;;;;;;;13.75;2.00;;;7.90;99.90;;;;;;5095148;28;20482;-69
2022/01/31 07:46:25;;;;;;;20.40;2.28;;;7.90;99.90;;;;;;5078884;28;20074;-68
2022/01/31 07:48:53;;;;;;;21.70;1.92;;;7.90;99.90;;;;;;5078178;28;20043;-68
2022/01/31 07:51:19;;;;;;;18.80;2.28;;;8.00;99.90;;;;;;5083376;28;20447;-68
2022/01/31 07:53:45;;;;;;;14.68;2.25;;;8.00;99.90;;;;;;5079636;28;20047;-69
2022/01/31 07:56:11;;;;;;;15.88;2.38;;;8.10;99.90;;;;;;5070028;28;20071;-68
2022/01/31 07:58:38;;;;;;;18.10;2.60;;;8.20;99.90;;;;;;5082348;28;20107;-68
2022/01/31 08:01:05;;;;;;;19.65;2.55;;;8.40;99.90;;;;;;5081004;28;20074;-68
2022/01/31 08:03:32;;;;;;;17.98;2.10;;;8.60;99.90;;;;;;5080363;28;20031;-68
2022/01/31 08:05:58;;;;;;;18.48;2.28;;;8.80;99.20;;;;;;5081724;28;20036;-68
2022/01/31 08:08:24;;;;;;;17.83;2.00;;;8.90;98.70;;;;;;5088030;28;20038;-68
2022/01/31 08:10:51;;;;;;;17.63;2.65;;;8.90;98.60;;;;;;5084199;28;20030;-68
2022/01/31 08:13:18;;;;;;;18.77;2.30;;;9.20;97.80;;;;;;5082516;28;20032;-68
2022/01/31 08:16:01;;;;;;;18.70;2.10;;;10.00;94.80;;;;;;5078663;28;20541;-68
2022/01/31 08:18:27;;;;;;;19.15;2.33;;;10.70;92.20;;;;;;5071794;28;20020;-68
2022/01/31 08:20:53;;;;;;;19.25;2.20;;;11.20;90.30;;;;;;5081588;28;20043;-69
2022/01/31 08:23:19;;;;;;;18.73;2.63;;;11.30;88.20;;;;;;5084239;28;20036;-67
2022/01/31 08:25:48;;;;;;;18.35;2.38;;;11.00;89.90;;;;;;5085907;28;20032;-69
2022/01/31 08:28:15;;;;;;;18.92;2.30;;;11.70;86.60;;;;;;5082169;28;20029;-71
2022/01/31 08:33:25;;;;;;;23.65;3.30;;;13.70;73.40;;;;;;5078289;28;20074;-67
2022/01/31 08:35:50;;;;;;;20.40;2.38;;;14.40;69.00;;;;;;5077869;28;20436;-67
2022/01/31 08:38:18;;;;;;;17.70;3.08;;;15.30;64.40;;;;;;5073262;28;20552;-67
2022/01/31 08:40:45;;;;;;;20.33;2.80;;;16.10;60.80;;;;;;5072643;28;20086;-68
2022/01/31 08:43:12;;;;;;;19.25;2.95;;;16.80;57.00;;;;;;5072771;28;20569;-66
2022/01/31 08:45:38;;;;;;;18.67;3.20;;;17.40;54.30;;;;;;5083266;28;20047;-68
2022/01/31 08:48:04;;;;;;;14.35;3.53;;;16.80;54.90;;;;;;5068969;28;20020;-67
2022/01/31 08:50:30;;;;;;;19.58;3.60;;;15.90;57.50;;;;;;5087080;28;20495;-70
2022/01/31 08:52:56;;;;;;;18.55;3.00;;;15.10;61.40;;;;;;5073246;28;20067;-68
2022/01/31 08:55:21;;;;;;;23.75;2.80;;;14.40;64.40;;;;;;5076396;28;20060;-69
2022/01/31 08:57:52;;;;;;;20.70;3.20;;;13.90;67.00;;;;;;5087439;28;20028;-67
2022/01/31 09:00:18;;;;;;;;;;;13.70;68.50;;;;;;5081328;28;20047;-68
2022/01/31 09:02:59;;;;;;;19.13;3.13;;;13.80;68.50;;;;;;5090835;28;19915;-67
2022/01/31 09:05:25;;;;;;;22.98;3.97;;;14.00;67.80;;;;;;5090808;28;20052;-67
2022/01/31 09:07:51;;;;;;;17.15;2.53;;;13.80;67.20;;;;;;5081694;28;20046;-67
2022/01/31 09:10:18;;;;;;;18.48;2.70;;;13.70;68.40;;;;;;5087754;28;20110;-68
2022/01/31 09:12:44;;;;;;;17.42;2.75;;;14.10;66.30;;;;;;5087367;28;20031;-67
2022/01/31 09:15:15;;;;;;;23.00;3.60;;;14.50;64.10;;;;;;5090275;28;20478;-66
2022/01/31 09:17:41;;;;;;;22.40;3.03;;;13.90;65.30;;;;;;5104127;28;20030;-68
2022/01/31 09:20:08;;;;;;;17.65;2.58;;;13.40;68.20;;;;;;5083206;28;20105;-67
2022/01/31 09:22:34;;;;;;;17.70;2.90;;;13.20;69.10;;;;;;5087064;28;20028;-67
2022/01/31 09:25:01;;;;;;;15.43;2.53;;;14.10;65.00;;;;;;5093774;28;20024;-67
2022/01/31 09:27:27;;;;;;;19.27;3.00;;;16.70;55.00;;;;;;5088644;28;20033;-68
2022/01/31 09:29:54;;;;;;;17.70;2.78;;;17.60;50.50;;;;;;5076086;28;20406;-67
2022/01/31 09:32:23;;;;;;;19.85;2.85;;;16.00;54.80;;;;;;5080673;28;20028;-68
2022/01/31 09:34:49;;;;;;;20.30;2.95;;;15.10;58.00;;;;;;5078078;28;20024;-68
2022/01/31 09:37:15;;;;;;;19.42;2.80;;;14.80;59.10;;;;;;5085184;28;20067;-67
2022/01/31 09:39:43;;;;;;;16.90;2.90;;;16.10;55.50;;;;;;5087689;28;20060;-65
2022/01/31 09:42:14;;;;;;;17.70;3.20;;;18.90;47.90;;;;;;5088171;28;20027;-65
2022/01/31 09:47:23;;;;;;;18.17;2.95;;;22.80;38.90;;;;;;5086088;28;20086;-67
2022/01/31 09:49:49;;;;;;;15.18;4.45;;;24.00;36.10;;;;;;5086357;28;20100;-67
2022/01/31 09:52:15;;;;;;;19.85;3.22;;;21.10;39.90;;;;;;5086289;28;20020;-66
2022/01/31 09:54:42;;;;;;;18.88;2.90;;;18.90;44.00;;;;;;5086764;28;20784;-68
2022/01/31 09:57:08;;;;;;;21.30;2.42;;;17.60;47.40;;;;;;5071556;28;20040;-68
2022/01/31 09:59:34;;;;;;;17.35;2.60;;;16.50;50.40;;;;;;5083690;28;20648;-66
2022/01/31 10:02:11;;;;;;;21.42;3.13;;;15.60;53.20;;;;;;5088803;28;20024;-68
2022/01/31 10:04:46;;;;;;;20.80;2.38;;;14.90;55.10;;;;;;5079647;28;20507;-66
2022/01/31 10:07:14;;;;;;;18.02;2.50;;;14.40;57.10;;;;;;5081318;28;20112;-66
2022/01/31 10:09:43;;;;;;;21.70;2.60;;;14.30;58.50;;;;;;5075046;28;20041;-66
2022/01/31 10:17:45;;;;;;;22.50;3.63;;;17.80;49.10;;;;;;5085151;28;20545;-67
2022/01/31 10:20:25;;;;;;;16.58;2.85;;;21.00;42.30;;;;;;5087997;28;20070;-67
2022/01/31 10:22:51;;;;;;;17.30;3.30;;;21.70;39.10;;;;;;5086987;28;20076;-69
2022/01/31 10:25:19;;;;;;;20.08;3.47;;;23.20;37.10;;;;;;5087261;28;20028;-68
2022/01/31 10:27:53;;;;;;;18.10;3.10;;;25.20;33.70;;;;;;5086970;28;20028;-69
2022/01/31 10:30:23;;;;;;;20.02;3.38;;;24.60;33.70;;;;;;5087872;28;20028;-68
2022/01/31 10:32:50;;;;;;;22.52;3.28;;;22.60;37.00;;;;;;5087499;28;20055;-67
2022/01/31 10:35:19;;;;;;;21.40;4.22;;;20.70;41.20;;;;;;5087946;28;20093;-68
2022/01/31 10:37:47;;;;;;;17.13;3.80;;;23.40;36.40;;;;;;5086377;28;20066;-70
2022/01/31 10:46:05;;;;;;;17.15;3.28;;;23.60;33.80;;;;;;5086781;28;20059;-68
2022/01/31 10:56:56;;;;;;;17.42;3.88;;;20.30;40.70;;;;;;5086158;28;20089;-65
2022/01/31 10:59:37;;;;;;;16.92;2.53;;;18.80;42.30;;;;;;5075011;28;20035;-67
2022/01/31 11:02:15;;;;;;;14.85;2.15;;;17.50;46.00;;;;;;5084049;28;20036;-67
2022/01/31 11:04:42;;;;;;;13.95;2.28;;;16.60;46.30;;;;;;5095118;28;20047;-67
2022/01/31 11:07:14;;;;;;;18.10;3.10;;;16.10;48.70;;;;;;5081804;28;20032;-67
2022/01/31 11:09:46;;;;;;;14.50;2.58;;;16.60;48.20;;;;;;5072473;28;20027;-68
2022/01/31 11:12:13;;;;;;;14.50;2.28;;;19.20;42.70;;;;;;5083155;28;20403;-68
2022/01/31 11:14:43;;;;;;;16.35;2.53;;;18.80;43.10;;;;;;5073375;28;20399;-67
2022/01/31 11:17:12;;;;;;;14.50;2.72;;;18.20;44.20;;;;;;5076370;28;20107;-68
2022/01/31 11:19:43;;;;;;;15.50;2.45;;;17.80;44.10;;;;;;5074890;28;20036;-68
2022/01/31 11:22:12;;;;;;;13.00;2.65;;;18.20;43.80;;;;;;5076584;28;20031;-68
2022/01/31 11:24:50;;;;;;;15.25;3.63;;;18.90;43.00;;;;;;5086565;28;20122;-68
2022/01/31 11:27:19;;;;;;;17.25;2.97;;;20.10;41.30;;;;;;5071760;28;20028;-68
2022/01/31 11:29:48;;;;;;;18.23;3.80;;;22.30;36.00;;;;;;5076423;28;20055;-69
2022/01/31 11:32:14;;;;;;;15.93;3.20;;;22.40;36.30;;;;;;5089471;28;20028;-69
2022/01/31 11:34:45;;;;;;;14.75;3.65;;;24.10;33.10;;;;;;5085858;28;20028;-69
2022/01/31 11:37:12;;;;;;;;;;;26.80;29.50;;;;;;5081784;28;20044;-69
2022/01/31 11:39:42;;;;;;;12.10;3.20;;;29.10;26.80;;;;;;5074498;28;19958;-70
2022/01/31 11:42:09;;;;;;;13.65;3.03;;;30.60;25.10;;;;;;5070175;28;20085;-70
2022/01/31 11:45:04;;;;;;;13.40;2.60;;;30.20;25.10;;;;;;5074053;28;20377;-70
2022/01/31 11:47:31;;;;;;;15.32;2.80;;;28.80;26.60;;;;;;5089675;28;20109;-70
2022/01/31 11:50:00;;;;;;;13.80;2.60;;;28.20;26.50;;;;;;5074558;28;20043;-69
2022/01/31 11:52:31;;;;;;;10.95;2.28;;;26.30;28.00;;;;;;5074317;28;20027;-69
2022/01/31 11:55:03;;;;;;;15.10;2.65;;;26.40;28.10;;;;;;5074314;28;20040;-70
2022/01/31 11:57:33;;;;;;;12.23;3.20;;;26.80;26.90;;;;;;5076450;28;20107;-70
2022/01/31 12:00:10;;;;;;;12.77;3.10;;;27.80;26.80;;;;;;5078869;28;20024;-70
2022/01/31 12:02:51;;;;;;;12.02;2.50;;;30.10;24.40;;;;;;5085995;28;20454;-70
2022/01/31 12:05:23;;;;;;;15.30;3.05;;;30.40;24.20;;;;;;5073911;28;20431;-70
2022/01/31 12:08:08;;;;;;;12.40;2.30;;;29.80;24.60;;;;;;5081074;28;20107;-70
2022/01/31 12:10:42;;;;;;;9.98;2.80;;;28.50;25.70;;;;;;5090383;28;20092;-71
2022/01/31 12:13:34;;;;;;;10.10;2.50;;;28.40;25.40;;;;;;5094360;28;20553;-70
2022/01/31 12:16:21;;;;;;;12.73;2.50;;;30.00;24.30;;;;;;5081682;28;20070;-70
2022/01/31 12:18:57;;;;;;;13.05;2.83;;;31.60;22.80;;;;;;5084172;28;20027;-73
2022/01/31 12:24:27;;;;;;;11.68;2.88;;;33.50;21.60;;;;;;5083538;28;20039;-72
2022/01/31 12:26:55;;;;;;;11.13;2.63;;;34.00;20.80;;;;;;5097018;28;20043;-70
2022/01/31 12:29:30;;;;;;;10.60;2.38;;;33.70;21.00;;;;;;5094498;28;20029;-67
2022/01/31 12:31:57;;;;;;;9.90;2.60;;;33.20;21.00;;;;;;5092813;28;20032;-69
2022/01/31 12:34:23;;;;;;;11.05;2.30;;;33.40;21.10;;;;;;5084087;28;20020;-71
2022/01/31 12:36:56;;;;;;;10.43;2.22;;;31.80;22.00;;;;;;5091162;28;20047;-71
2022/01/31 12:39:31;;;;;;;10.35;2.55;;;31.60;22.20;;;;;;5071777;28;20092;-70
2022/01/31 12:42:14;;;;;;;10.93;1.75;;;28.90;24.10;;;;;;5082685;28;20096;-70
2022/01/31 12:44:42;;;;;;;13.88;2.60;;;26.40;26.20;;;;;;5085238;28;20035;-70
2022/01/31 12:47:11;;;;;;;10.50;2.13;;;24.40;28.20;;;;;;5077462;28;20277;-70
2022/01/31 12:49:38;;;;;;;10.32;2.10;;;23.00;29.50;;;;;;5085790;28;20485;-70
2022/01/31 12:52:06;;;;;;;13.40;2.53;;;22.60;30.30;;;;;;5092513;28;20028;-69
2022/01/31 12:54:33;;;;;;;11.50;2.30;;;24.00;29.80;;;;;;5083864;28;20025;-68
2022/01/31 12:57:09;;;;;;;13.77;2.40;;;23.50;32.10;;;;;;5085982;28;20071;-69
2022/01/31 12:59:36;;;;;;;13.55;2.40;;;21.60;36.40;;;;;;5085559;28;20028;-68
2022/01/31 13:02:08;;;;;;;12.55;2.33;;;20.00;40.00;;;;;;5085677;28;20032;-67
2022/01/31 13:04:35;;;;;;;17.23;2.30;;;19.30;41.80;;;;;;5077285;28;20068;-68
2022/01/31 13:07:04;;;;;;;12.95;2.53;;;19.00;42.70;;;;;;5075710;28;20035;-68
2022/01/31 13:09:35;;;;;;;15.27;3.25;;;22.00;38.00;;;;;;5085083;28;20016;-68
2022/01/31 13:12:06;;;;;;;47.88;26.90;;;22.10;36.70;;;;;;5075585;28;20119;-68
2022/01/31 13:14:34;;;;;;;60.58;39.03;;;21.20;37.70;;;;;;5073320;28;20071;-67
2022/01/31 13:17:08;;;;;;;45.25;30.27;;;20.80;38.30;;;;;;5084985;28;20052;-69
2022/01/31 13:19:40;;;;;;;92.97;55.85;;;21.20;37.90;;;;;;5086121;28;20024;-69